Flight Track Log - Related Links

Times and Time Zones

All times are in EDT time to prevent confusion due to time zone crossing. See the SWA1377 flight status page for this flight to view local times or setup timezone preferences in your user account.


Time Position Orientation Groundspeed Altitude Reporting Facility
EDT Latitude Longitude Course Direction KTS MPH feet Rate Location/Type
Thu 10:24:52 PM 41.8000 -87.7667 75° East 162 186 2,200  Level Chicago TRACON
Thu 10:26:23 PM 41.8161 -87.6836 75° East 227 261 3,400 1,608 Climbing Chicago Center
Thu 10:27:25 PM 41.8017 -87.5872 101° East 251 289 6,300 3,122 Climbing Chicago Center
Thu 10:28:26 PM 41.7922 -87.4800 97° East 286 329 9,800 3,512 Climbing Chicago Center
Thu 10:29:28 PM 41.7844 -87.3725 96° East 290 334 13,500 3,532 Climbing Chicago Center
Thu 10:30:30 PM 41.7736 -87.2383 96° East 302 348 17,100 2,732 Climbing Chicago Center
Thu 10:31:31 PM 41.7661 -87.1119 95° East 333 383 19,100 1,902 Climbing Chicago Center
Thu 10:32:33 PM 41.7828 -86.9647 81° East 396 456 21,000 1,756 Climbing Chicago Center
Thu 10:33:34 PM 41.8011 -86.8067 81° East 424 488 22,700 976 Climbing Chicago Center
Thu 10:34:36 PM 41.8197 -86.6267 82° East 448 516 23,000 195 Climbing Chicago Center
Thu 10:35:37 PM 41.8361 -86.4622 82° East 446 513 23,100 984 Climbing Chicago Center
Thu 10:36:38 PM 41.8514 -86.2964 83° East 448 516 25,000 1,854 Climbing Chicago Center
Thu 10:37:40 PM 41.8683 -86.1272 82° East 455 524 26,900 2,000 Climbing Chicago Center
Thu 10:38:41 PM 41.8850 -85.9539 83° East 467 537 29,100 2,000 Climbing Chicago Center
Thu 10:39:43 PM 41.9008 -85.7833 83° East 461 531 31,000 1,610 Climbing Chicago Center
Thu 10:40:44 PM 41.9175 -85.6083 83° East 467 537 32,400 1,279 Climbing Chicago Center
Thu 10:41:45 PM 41.9336 -85.4272 83° East 480 552 33,600 1,122 Climbing Chicago Center
Thu 10:42:47 PM 41.9508 -85.2422 83° East 493 567 34,700 1,171 Climbing Chicago Center
Thu 10:43:48 PM 41.9514 -85.0567 90° East 493 567 36,000 1,246 Climbing Chicago Center
Thu 10:44:57 PM 41.9519 -84.8358 90° East 490 564 37,400 1,163 Climbing Cleveland Center
Thu 10:45:57 PM 41.9525 -84.6517 90° East 490 564 38,500 800 Climbing Cleveland Center
Thu 10:46:57 PM 41.9483 -84.4669 92° East 490 564 39,000 250 Climbing Cleveland Center
Thu 10:47:57 PM 41.9444 -84.2686 91° East 495 570 39,000  Level Cleveland Center
Thu 10:48:57 PM 41.9419 -84.0869 91° East 490 564 39,000  Level Cleveland Center
Thu 10:49:57 PM 41.9411 -83.8997 90° East 490 564 39,000  Level Cleveland Center
Thu 10:50:57 PM 41.9358 -83.7181 92° East 490 564 39,000  Level Cleveland Center
Thu 10:51:57 PM 41.9322 -83.5364 91° East 490 564 39,000  Level Cleveland Center
Thu 10:52:57 PM 41.9306 -83.3519 91° East 490 564 39,000  Level Cleveland Center
Thu 10:53:57 PM 41.9289 -83.1622 91° East 495 570 39,000  Level Cleveland Center
Thu 10:54:57 PM 41.9289 -82.9722 90° East 500 575 39,000  Level Cleveland Center
Thu 10:55:57 PM 41.9283 -82.7853 90° East 506 582 39,000  Level Cleveland Center
Thu 10:56:57 PM 41.9256 -82.5981 91° East 506 582 39,000  Level Cleveland Center
Thu 10:57:57 PM 41.9267 -82.4056 89° East 501 577 39,000  Level Cleveland Center
Thu 10:58:57 PM 41.9211 -82.2156 92° East 501 577 39,000  Level Cleveland Center
Thu 10:59:57 PM 41.9217 -82.0258 90° East 501 577 39,000  Level Cleveland Center
Thu 11:00:57 PM 41.9197 -81.8333 91° East 506 582 39,000  Level Cleveland Center
Thu 11:01:57 PM 41.9383 -81.6411 83° East 511 588 39,000  Level Cleveland Center
Thu 11:02:57 PM 41.9608 -81.4517 81° East 521 600 39,000  Level Cleveland Center
Thu 11:03:57 PM 41.9808 -81.2592 82° East 521 600 39,000  Level Cleveland Center
Thu 11:04:57 PM 41.9986 -81.0636 83° East 526 605 39,000  Level Cleveland Center
Thu 11:05:57 PM 42.0178 -80.8933 81° East 520 598 39,000  Level Cleveland Center
Thu 11:06:57 PM 42.0392 -80.7006 81° East 520 598 39,000  Level Cleveland Center
Thu 11:07:57 PM 42.0600 -80.5133 81° East 515 593 39,000  Level Cleveland Center
Thu 11:08:57 PM 42.0764 -80.3231 83° East 515 593 39,000  Level Cleveland Center
Thu 11:09:57 PM 42.0947 -80.1328 83° East 515 593 39,000  Level Cleveland Center
Thu 11:10:57 PM 42.1164 -79.9253 82° East 515 593 39,000  Level Cleveland Center
Thu 11:11:57 PM 42.1319 -79.7375 84° East 510 587 39,000  Level Cleveland Center
Thu 11:12:57 PM 42.1511 -79.5442 82° East 510 587 39,000  Level Cleveland Center
Thu 11:13:57 PM 42.1681 -79.3561 83° East 505 581 39,000  Level Cleveland Center
Thu 11:14:57 PM 42.1847 -79.1625 83° East 505 581 39,000  Level Cleveland Center
Thu 11:15:57 PM 42.2092 -78.9714 80° East 505 581 39,000  Level Cleveland Center
Thu 11:16:57 PM 42.2336 -78.7772 80° East 511 588 39,000  Level Cleveland Center
Thu 11:17:57 PM 42.2594 -78.5828 80° East 518 596 39,000  Level Cleveland Center
Thu 11:18:57 PM 42.2811 -78.3914 81° East 523 602 39,000  Level Cleveland Center
Thu 11:19:57 PM 42.3064 -78.1967 80° East 523 602 39,000  Level Cleveland Center
Thu 11:20:57 PM 42.3292 -78.0019 81° East 523 602 39,000 -350 Level Cleveland Center
Thu 11:21:57 PM 42.3519 -77.8128 81° East 518 596 38,300 -850 Descending Cleveland Center
Thu 11:22:57 PM 42.3722 -77.6264 82° East 518 596 37,300 -650 Descending Cleveland Center
Thu 11:23:57 PM 42.3922 -77.4369 82° East 507 583 37,000 -88 Descending Cleveland Center
Thu 11:26:22 PM 42.4425 -76.9903 81° East 498 573 37,000  Level Boston Center
Thu 11:27:25 PM 42.4644 -76.8031 81° East 498 573 37,000  Level Boston Center
Thu 11:28:24 PM 42.4833 -76.6328 81° East 504 580 37,000  Level Boston Center
Thu 11:29:22 PM 42.5006 -76.4450 83° East 504 580 37,000  Level Boston Center
Thu 11:30:23 PM 42.5239 -76.2578 80° East 499 574 37,000  Level Boston Center
Thu 11:31:22 PM 42.5453 -76.0506 82° East 499 574 37,000 -50 Level Boston Center
Thu 11:32:23 PM 42.5636 -75.8597 83° East 499 574 36,900  Descending Boston Center
Thu 11:33:23 PM 42.5817 -75.6717 83° East 499 574 37,000 -605 Climbing Boston Center
Thu 11:34:22 PM 42.5972 -75.4808 84° East 499 574 35,700 -2,100 Descending Boston Center
Thu 11:35:23 PM 42.6169 -75.2897 82° East 504 580 32,800 -2,800 Descending Boston Center
Thu 11:36:22 PM 42.6361 -75.1017 82° East 504 580 30,100 -2,850 Descending Boston Center
Thu 11:37:23 PM 42.6528 -74.9103 83° East 504 580 27,100 -2,975 Descending Boston Center
Thu 11:38:23 PM 42.6714 -74.7161 83° East 504 580 24,100 -1,613 Descending Boston Center
Thu 11:39:22 PM 42.6853 -74.5414 84° East 487 560 23,900 -50 Descending Boston Center
Thu 11:40:24 PM 42.6964 -74.3864 84° East 450 518 24,000 50 Climbing Boston Center
Thu 11:41:23 PM 42.7114 -74.2258 83° East 430 495 24,000  Level Boston Center
Thu 11:42:25 PM 42.7244 -74.0653 84° East 425 489 24,000  Level Boston Center
Thu 11:43:23 PM 42.7369 -73.9072 84° East 425 489 24,000  Level Boston Center
Thu 11:44:25 PM 42.7492 -73.7464 84° East 425 489 24,000  Level Boston Center
Thu 11:45:23 PM 42.7572 -73.5911 86° East 432 497 24,000  Level Boston Center
Thu 11:46:22 PM 42.7631 -73.4158 87° East 450 518 24,000  Level Boston Center
Thu 11:47:22 PM 42.7686 -73.2347 88° East 467 537 24,000 -450 Level Boston Center
Thu 11:48:22 PM 42.7758 -73.0539 87° East 472 543 23,100 -1,672 Descending Boston Center
Thu 11:49:24 PM 42.7789 -72.8586 89° East 472 543 20,600 -2,182 Descending Boston Center
Thu 11:50:23 PM 42.7856 -72.7117 86° East 467 537 18,700 -2,034 Descending Boston Center
Thu 11:51:22 PM 42.7900 -72.5447 88° East 441 507 16,600 -2,213 Descending Boston Center
Thu 11:52:25 PM 42.7942 -72.3836 88° East 429 494 14,200 -2,400 Descending Boston Center
Thu 11:53:22 PM 42.8003 -72.2108 87° East 418 481 11,800 -1,983 Descending Boston Center
Thu 11:54:23 PM 42.8103 -72.0750 84° East 407 468 10,300 -1,000 Descending Boston Center
Thu 11:55:22 PM 42.8203 -71.9306 85° East 366 421 9,800 -639 Descending Boston Center
Thu 11:56:25 PM 42.8156 -71.8061 93° East 327 376 9,000 -500 Descending Boston Center
Thu 11:57:22 PM 42.8106 -71.6958 93° East 310 357 8,800 -1,160 Descending Boston Center
Thu 11:58:24 PM 42.7911 -71.5883 104° East 290 334 6,700 -1,525 Descending Boston Center
Thu 11:59:24 PM 42.7714 -71.4842 104° East 290 334 5,700 -881 Descending Boston Center
Fri 12:00:47 AM 42.7808 -71.3736 83° East 242 278 4,600 -833 Descending Boston Center
Fri 12:01:48 AM 42.8181 -71.3278 42° Northeast 161 185 3,700 -1,230 Descending Boston Center
Fri 12:02:49 AM 42.8433 -71.3642 313° West 95 109 2,100 -1,210 Descending Boston Center
Fri 12:03:47 AM 42.8769 -71.4003 322° Northwest 125 144 1,300 -756 Descending Boston Center
Fri 12:04:48 AM 42.9106 -71.4194 337° Northwest 133 153 600 -446 Descending Boston Center
Fri 12:05:48 AM 42.9422 -71.4503 325° Northwest 133 153 400 4,165 Descending Boston Center
Fri 12:06:49 AM 42.9736 -71.4781 327° Northwest 133 153 9,000 4,336 Climbing Boston Center
Fri 12:07:47 AM 43.0050 -71.5061 327° Northwest 133 153 9,000  Level Boston Center
Fri 12:09:00 AM 42.9328 -71.4358 154° Southeast  Level Estimated
Fri 12:16:00 AM 42.9328 -71.4358 154° Southeast  Level Estimated
Fri 12:17:00 AM 42.9328 -71.4358 154° Southeast  Level Estimated
Fri 12:18:00 AM 42.9328 -71.4358 154° Southeast  Level Estimated
Fri 12:19:00 AM 42.9328 -71.4358 154° Southeast  Level Estimated
Fri 12:20:00 AM 42.9328 -71.4358 154° Southeast  Level Estimated
Fri 12:21:00 AM 42.9328 -71.4358 154° Southeast  Level Estimated
Fri 12:22:00 AM 42.9328 -71.4358 154° Southeast  Level Estimated

Login

Don't have an account? Register now (free) for customized features, flight alerts, and more!